Time;durP1;ratioP1;P1;durP2;ratioP2;P2;SDS_P1;SDS_P2;PMS_P1;PMS_P2;Temp;Humidity;BMP_temperature;BMP_pressure;BME280_temperature;BME280_humidity;BME280_pressure;Samples;Min_cycle;Max_cycle;Signal;HPM_P1;HPM_P2
2023/06/19 00:02:08;;;;;;;;;;;;;;;24.98;45.24;99850.19;4976749;28;6772;-72
2023/06/19 00:04:33;;;;;;;;;;;;;;;24.95;45.80;99851.97;4980798;28;6914;-74
2023/06/19 00:07:01;;;;;;;;;;;;;;;24.93;45.29;99858.16;4975398;28;6776;-73
2023/06/19 00:09:26;;;;;;;;;;;;;;;24.88;45.46;99854.75;4979965;28;6967;-75
2023/06/19 00:11:52;;;;;;;;;;;;;;;24.84;45.97;99858.34;4963287;28;6806;-73
2023/06/19 00:14:18;;;;;;;;;;;;;;;24.77;46.04;99855.78;4976258;28;7851;-74
2023/06/19 00:16:44;;;;;;;;;;;;;;;24.72;45.90;99847.16;4964839;28;6939;-72
2023/06/19 00:19:12;;;;;;;;;;;;;;;24.66;46.03;99861.22;4967607;28;7016;-72
2023/06/19 00:21:38;;;;;;;;;;;;;;;24.61;46.30;99856.97;4959419;28;7348;-73
2023/06/19 00:24:05;;;;;;;;;;;;;;;24.58;46.49;99862.28;4978205;28;6883;-73
2023/06/19 00:26:31;;;;;;;;;;;;;;;24.55;46.71;99852.72;4963436;28;7338;-73
2023/06/19 00:28:57;;;;;;;;;;;;;;;24.53;46.66;99860.63;4958967;28;6997;-73
2023/06/19 00:31:23;;;;;;;;;;;;;;;24.52;46.82;99864.09;4975030;28;7220;-73
2023/06/19 00:33:50;;;;;;;;;;;;;;;24.50;46.90;99855.41;4955006;28;6985;-73
2023/06/19 00:36:20;;;;;;;;;;;;;;;24.50;46.88;99855.41;4972347;28;7855;-74
2023/06/19 00:38:46;;;;;;;;;;;;;;;24.52;46.61;99864.09;4975450;28;7188;-74
2023/06/19 00:41:11;;;;;;;;;;;;;;;24.55;46.45;99865.81;4978654;28;6776;-73
2023/06/19 00:43:37;;;;;;;;;;;;;;;24.57;46.57;99866.66;4979258;28;7310;-75
2023/06/19 00:46:03;;;;;;;;;;;;;;;24.61;46.80;99870.94;4978575;28;7849;-73
2023/06/19 00:48:31;;;;;;;;;;;;;;;24.62;46.66;99871.78;4979528;28;6856;-73
2023/06/19 00:50:57;;;;;;;;;;;;;;;24.63;46.44;99879.63;4994735;28;6974;-72
2023/06/19 00:53:25;;;;;;;;;;;;;;;24.63;46.73;99871.78;4978452;28;7352;-73
2023/06/19 00:55:52;;;;;;;;;;;;;;;24.62;46.46;99875.28;4959979;28;6947;-74
2023/06/19 00:58:23;;;;;;;;;;;;;;;24.64;46.86;99877.91;4970302;28;6808;-73
2023/06/19 01:00:49;;;;;;;;;;;;;;;24.64;46.72;99877.91;4976101;28;6828;-73
2023/06/19 01:03:16;;;;;;;;;;;;;;;24.66;46.28;99878.72;4975771;28;6780;-72
2023/06/19 01:05:43;;;;;;;;;;;;;;;24.69;46.48;99879.53;4976925;28;6796;-75
2023/06/19 01:08:22;;;;;;;;;;;;;;;24.74;46.25;99884.69;4956391;28;7239;-73
2023/06/19 01:10:56;;;;;;;;;;;;;;;24.78;46.59;99878.50;4974909;28;6831;-73
2023/06/19 01:13:27;;;;;;;;;;;;;;;24.83;46.19;99886.28;4983122;28;6800;-74
2023/06/19 01:15:54;;;;;;;;;;;;;;;24.88;46.11;99880.97;4975705;28;6812;-74
2023/06/19 01:18:21;;;;;;;;;;;;;;;24.92;46.19;99887.88;4979449;28;6780;-74
2023/06/19 01:20:49;;;;;;;;;;;;;;;24.99;45.97;99884.22;4973174;28;6803;-73
2023/06/19 01:23:15;;;;;;;;;;;;;;;25.05;45.83;99889.34;4975192;28;6796;-72
2023/06/19 01:25:40;;;;;;;;;;;;;;;25.16;45.62;99888.28;4970297;28;6977;-74
2023/06/19 01:28:11;;;;;;;;;;;;;;;25.25;45.43;99890.69;4978770;28;6780;-74
2023/06/19 01:30:40;;;;;;;;;;;;;;;25.33;44.91;99894.03;4978853;28;6888;-74
2023/06/19 01:33:17;;;;;;;;;;;;;;;25.42;45.06;99894.72;4959486;28;7072;-73
2023/06/19 01:35:45;;;;;;;;;;;;;;;25.51;44.40;99902.44;4977826;28;6816;-73
2023/06/19 01:38:12;;;;;;;;;;;;;;;25.57;44.71;99899.66;4977373;28;6827;-73
2023/06/19 01:40:40;;;;;;;;;;;;;;;25.64;44.12;99900.38;4962569;28;7104;-74
2023/06/19 01:43:07;;;;;;;;;;;;;;;25.71;43.63;99901.13;4972413;28;7067;-74
2023/06/19 01:45:34;;;;;;;;;;;;;;;25.75;43.57;99900.13;4976968;28;7269;-72
2023/06/19 01:48:00;;;;;;;;;;;;;;;25.82;43.24;99909.59;4976953;28;7158;-72
2023/06/19 01:50:25;;;;;;;;;;;;;;;25.86;43.14;99903.38;4964414;28;8794;-72
2023/06/19 01:52:51;;;;;;;;;;;;;;;25.89;42.98;99915.56;4981462;28;6934;-73
2023/06/19 01:55:18;;;;;;;;;;;;;;;25.90;42.97;99914.66;4982673;28;7153;-73
2023/06/19 01:57:45;;;;;;;;;;;;;;;25.90;43.18;99926.03;4977911;28;7151;-72
2023/06/19 02:00:12;;;;;;;;;;;;;;;25.89;43.05;99924.31;4993612;28;7054;-73
2023/06/19 02:02:38;;;;;;;;;;;;;;;25.87;43.27;99930.50;4979968;28;6864;-74
2023/06/19 02:05:04;;;;;;;;;;;;;;;25.81;43.27;99935.88;4979867;28;7318;-73
2023/06/19 02:07:30;;;;;;;;;;;;;;;25.75;43.35;99944.75;4978515;28;7145;-73
2023/06/19 02:09:57;;;;;;;;;;;;;;;25.68;43.13;99945.78;4976204;28;6977;-72
2023/06/19 02:12:22;;;;;;;;;;;;;;;25.63;43.33;99946.75;4964417;28;7245;-72
2023/06/19 02:14:48;;;;;;;;;;;;;;;25.56;43.36;99947.78;4965279;28;7036;-72
2023/06/19 02:17:14;;;;;;;;;;;;;;;25.51;43.65;99950.50;4965481;28;7151;-71
2023/06/19 02:19:39;;;;;;;;;;;;;;;25.44;43.64;99954.09;4975303;28;6773;-72
2023/06/19 02:22:06;;;;;;;;;;;;;;;25.37;43.96;99956.00;4984317;28;7680;-73
2023/06/19 02:24:32;;;;;;;;;;;;;;;25.31;44.24;99956.13;4967048;28;7056;-73
2023/06/19 02:26:58;;;;;;;;;;;;;;;25.24;44.46;99959.78;4961258;28;7032;-71
2023/06/19 02:29:25;;;;;;;;;;;;;;;25.17;44.61;99966.03;4978486;28;6915;-78
2023/06/19 02:31:51;;;;;;;;;;;;;;;25.09;45.13;99969.66;4975909;28;6855;-76
2023/06/19 02:34:17;;;;;;;;;;;;;;;25.05;45.27;99974.97;4984568;28;7291;-76
2023/06/19 02:36:43;;;;;;;;;;;;;;;24.99;45.72;99978.59;4962186;28;6988;-76
2023/06/19 02:39:09;;;;;;;;;;;;;;;24.92;45.87;99977.84;4978209;28;6764;-76
2023/06/19 02:41:35;;;;;;;;;;;;;;;24.86;45.86;99982.34;4973858;28;7219;-75
2023/06/19 02:44:01;;;;;;;;;;;;;;;24.80;46.09;99986.78;4980392;28;6821;-75
2023/06/19 02:46:27;;;;;;;;;;;;;;;24.74;46.14;99986.88;4981931;28;6876;-75
2023/06/19 02:48:52;;;;;;;;;;;;;;;24.67;46.49;99986.13;4973510;28;7343;-75
2023/06/19 02:51:18;;;;;;;;;;;;;;;24.60;46.80;99989.72;4964514;28;7185;-76
2023/06/19 02:53:44;;;;;;;;;;;;;;;24.55;47.28;99995.03;4981677;28;7307;-76
2023/06/19 02:56:12;;;;;;;;;;;;;;;24.51;47.23;99992.50;4959197;28;7063;-76
2023/06/19 02:58:37;;;;;;;;;;;;;;;24.44;47.07;100004.84;4967152;28;7080;-72
2023/06/19 03:01:06;;;;;;;;;;;;;;;24.39;47.55;99999.66;4980891;28;7174;-72
2023/06/19 03:03:37;;;;;;;;;;;;;;;24.35;47.48;100016.28;4980160;28;6824;-72
2023/06/19 03:06:07;;;;;;;;;;;;;;;24.33;47.90;100015.47;4976617;28;6808;-73
2023/06/19 03:08:34;;;;;;;;;;;;;;;24.33;48.17;100014.59;4982531;28;6783;-72
2023/06/19 03:11:00;;;;;;;;;;;;;;;24.33;48.02;100023.31;4975312;28;6792;-72
2023/06/19 03:13:26;;;;;;;;;;;;;;;24.34;47.62;100021.59;4976522;28;7179;-71
2023/06/19 03:15:52;;;;;;;;;;;;;;;24.31;48.04;100014.63;4964902;28;7084;-72
2023/06/19 03:18:17;;;;;;;;;;;;;;;24.31;48.18;100021.59;4980239;28;6803;-73
2023/06/19 03:20:43;;;;;;;;;;;;;;;24.28;48.67;100017.28;4965358;28;7019;-73
2023/06/19 03:23:08;;;;;;;;;;;;;;;24.24;48.58;100019.09;4972100;28;6780;-74
2023/06/19 03:25:42;;;;;;;;;;;;;;;24.23;48.52;100033.03;4971808;28;6827;-72
2023/06/19 03:28:08;;;;;;;;;;;;;;;24.23;48.76;100033.03;4980622;28;6815;-72
2023/06/19 03:30:34;;;;;;;;;;;;;;;24.24;48.62;100042.66;4975165;28;6772;-72
2023/06/19 03:32:59;;;;;;;;;;;;;;;24.26;49.18;100045.22;4969955;28;6946;-74
2023/06/19 03:35:25;;;;;;;;;;;;;;;24.25;49.01;100046.13;4981593;28;6927;-73
2023/06/19 03:37:50;;;;;;;;;;;;;;;24.23;49.05;100051.38;4963682;28;8705;-71
2023/06/19 03:40:16;;;;;;;;;;;;;;;24.20;48.68;100059.28;4977381;28;6779;-72
2023/06/19 03:42:42;;;;;;;;;;;;;;;24.16;49.13;100055.00;4978865;28;6776;-74
2023/06/19 03:45:08;;;;;;;;;;;;;;;24.15;49.50;100068.09;4971660;28;7301;-73
2023/06/19 03:47:34;;;;;;;;;;;;;;;24.14;49.44;100067.22;4971189;28;6812;-72
2023/06/19 03:49:59;;;;;;;;;;;;;;;24.14;49.49;100061.97;4983198;28;6959;-71
2023/06/19 03:52:25;;;;;;;;;;;;;;;24.16;49.76;100073.31;4978007;28;6833;-76
2023/06/19 03:54:51;;;;;;;;;;;;;;;24.21;49.31;100076.72;4976550;28;6788;-72
2023/06/19 03:57:16;;;;;;;;;;;;;;;24.26;49.45;100076.66;4944900;28;7328;-74
2023/06/19 03:59:42;;;;;;;;;;;;;;;24.32;49.59;100080.94;4972067;28;6788;-72
2023/06/19 04:02:07;;;;;;;;;;;;;;;24.36;49.65;100080.88;4979648;28;6847;-74
2023/06/19 04:04:33;;;;;;;;;;;;;;;24.40;49.47;100079.97;4974279;28;6836;-74
2023/06/19 04:06:59;;;;;;;;;;;;;;;24.43;49.85;100080.78;4957024;28;7704;-72
2023/06/19 04:09:25;;;;;;;;;;;;;;;24.45;49.74;100090.38;4969246;28;6768;-74
2023/06/19 04:11:50;;;;;;;;;;;;;;;24.47;49.74;100088.59;4974221;28;7012;-72
2023/06/19 04:14:16;;;;;;;;;;;;;;;24.49;49.24;100088.56;4977039;28;6768;-72
2023/06/19 04:16:42;;;;;;;;;;;;;;;24.49;49.27;100094.66;4977194;28;7224;-72
2023/06/19 04:19:07;;;;;;;;;;;;;;;24.50;49.89;100093.78;4979918;28;7171;-72
2023/06/19 04:21:33;;;;;;;;;;;;;;;24.51;49.48;100094.66;4977592;28;6939;-72
2023/06/19 04:23:59;;;;;;;;;;;;;;;24.54;49.46;100102.44;4974462;28;6809;-73
2023/06/19 04:26:25;;;;;;;;;;;;;;;24.58;49.37;100098.91;4977761;28;7114;-74
2023/06/19 04:28:50;;;;;;;;;;;;;;;24.62;49.99;100103.22;4971833;28;7006;-72
2023/06/19 04:31:18;;;;;;;;;;;;;;;24.65;49.31;100102.31;4977706;28;6776;-72
2023/06/19 04:33:45;;;;;;;;;;;;;;;24.67;49.47;100108.38;4977467;28;6808;-73
2023/06/19 04:36:11;;;;;;;;;;;;;;;24.69;50.05;100103.97;4980305;28;6792;-72
2023/06/19 04:38:36;;;;;;;;;;;;;;;24.73;50.23;100104.78;4970123;28;6769;-72
2023/06/19 04:41:02;;;;;;;;;;;;;;;24.75;50.09;100103.88;4977563;28;6920;-72
2023/06/19 04:43:28;;;;;;;;;;;;;;;24.78;50.26;100111.72;4978808;28;7233;-72
2023/06/19 04:45:53;;;;;;;;;;;;;;;24.80;49.86;100109.94;4980310;28;7013;-78
2023/06/19 04:48:19;;;;;;;;;;;;;;;24.82;50.06;100102.94;4974168;28;7091;-76
2023/06/19 04:50:45;;;;;;;;;;;;;;;24.86;50.15;100113.38;4975650;28;6784;-76
2023/06/19 04:53:11;;;;;;;;;;;;;;;24.87;49.93;100117.72;4960356;28;7414;-74
2023/06/19 04:55:37;;;;;;;;;;;;;;;24.91;49.98;100111.53;4972714;28;7578;-77
2023/06/19 04:58:03;;;;;;;;;;;;;;;24.98;50.14;100115.78;4976111;28;6784;-77
2023/06/19 05:00:29;;;;;;;;;;;;;;;25.06;49.60;100113.03;4978291;28;6949;-77
2023/06/19 05:02:59;;;;;;;;;;;;;;;25.14;50.05;100113.75;4976905;28;6778;-77
2023/06/19 05:05:25;;;;;;;;;;;;;;;25.28;50.10;100110.06;4980060;28;6978;-74
2023/06/19 05:07:52;;;;;;;;;;;;;;;25.53;50.48;100113.13;4979932;28;6784;-77
2023/06/19 05:10:19;;;;;;;;;;;;;;;25.85;49.97;100105.53;4978652;28;6848;-76
2023/06/19 05:12:44;;;;;;;;;;;;;;;26.08;49.26;100110.31;4979600;28;6788;-78
2023/06/19 05:15:10;;;;;;;;;;;;;;;26.23;48.48;100105.63;4978911;28;6776;-77
2023/06/19 05:17:38;;;;;;;;;;;;;;;26.32;48.33;100111.56;4967916;28;7152;-76
2023/06/19 05:20:07;;;;;;;;;;;;;;;26.38;47.92;100104.44;4982283;28;7180;-77
2023/06/19 05:22:34;;;;;;;;;;;;;;;26.38;47.54;100109.69;4983261;28;7249;-77
2023/06/19 05:25:00;;;;;;;;;;;;;;;26.36;47.25;100109.72;4983887;28;6815;-77
2023/06/19 05:27:26;;;;;;;;;;;;;;;26.31;46.92;100111.59;4978842;28;7068;-75
2023/06/19 05:29:52;;;;;;;;;;;;;;;26.27;47.37;100116.03;4980192;28;6792;-78
2023/06/19 05:32:17;;;;;;;;;;;;;;;26.23;46.98;100111.78;4976474;28;7315;-79
2023/06/19 05:34:43;;;;;;;;;;;;;;;26.19;46.93;100121.47;4977178;28;7610;-77
2023/06/19 05:37:09;;;;;;;;;;;;;;;26.12;46.88;100121.56;4978745;28;7047;-78
2023/06/19 05:39:35;;;;;;;;;;;;;;;26.04;46.81;100130.50;4986917;28;6906;-77
2023/06/19 05:42:01;;;;;;;;;;;;;;;25.96;46.81;100131.53;4980583;28;6779;-76
2023/06/19 05:44:27;;;;;;;;;;;;;;;25.89;46.91;100131.69;4966379;28;7111;-77
2023/06/19 05:46:53;;;;;;;;;;;;;;;25.82;47.19;100131.81;4978553;28;6867;-77
2023/06/19 05:49:18;;;;;;;;;;;;;;;25.77;47.36;100134.53;4978544;28;6796;-77
2023/06/19 05:51:44;;;;;;;;;;;;;;;25.73;47.39;100132.88;4982048;28;7085;-76
2023/06/19 05:54:09;;;;;;;;;;;;;;;25.70;47.30;100138.19;4978003;28;6844;-75
2023/06/19 05:56:36;;;;;;;;;;;;;;;25.69;47.37;100136.44;4979837;28;6982;-78
2023/06/19 05:59:02;;;;;;;;;;;;;;;25.69;47.68;100137.31;4981181;28;7379;-77
2023/06/19 06:01:28;;;;;;;;;;;;;;;25.73;47.77;100132.88;4985509;28;6800;-77
2023/06/19 06:03:55;;;;;;;;;;;;;;;25.75;47.65;100125.81;4985068;28;6931;-75
2023/06/19 06:06:23;;;;;;;;;;;;;;;25.75;47.79;100144.19;4993234;28;6800;-76
2023/06/19 06:08:51;;;;;;;;;;;;;;;25.67;47.82;100146.09;4969759;28;6808;-75
2023/06/19 06:11:16;;;;;;;;;;;;;;;25.58;48.06;100155.88;4987482;28;7012;-74
2023/06/19 06:13:42;;;;;;;;;;;;;;;25.49;48.13;100156.00;4994982;28;6771;-74
2023/06/19 06:16:08;;;;;;;;;;;;;;;25.41;48.21;100160.53;4962666;28;6919;-77
2023/06/19 06:18:33;;;;;;;;;;;;;;;25.35;48.42;100172.84;4984515;28;6784;-78
2023/06/19 06:20:59;;;;;;;;;;;;;;;25.30;48.30;100182.56;4963918;28;6955;-75
2023/06/19 06:23:25;;;;;;;;;;;;;;;25.22;48.46;100179.22;4985429;28;6792;-78
2023/06/19 06:25:51;;;;;;;;;;;;;;;25.14;49.13;100181.09;4986737;28;6868;-75
2023/06/19 06:28:17;;;;;;;;;;;;;;;25.11;49.24;100187.25;4987776;28;6836;-77
2023/06/19 06:30:43;;;;;;;;;;;;;;;25.14;49.51;100181.09;4985828;28;6934;-77
2023/06/19 06:33:09;;;;;;;;;;;;;;;25.19;49.29;100187.09;4980924;28;6860;-78
2023/06/19 06:35:35;;;;;;;;;;;;;;;25.26;50.02;100186.13;4986860;28;6791;-77
2023/06/19 06:38:02;;;;;;;;;;;;;;;25.35;49.50;100190.34;4963974;28;8102;-79
2023/06/19 06:40:28;;;;;;;;;;;;;;;25.47;49.78;100194.50;4987669;28;6875;-76
2023/06/19 06:42:54;;;;;;;;;;;;;;;25.60;49.29;100206.59;4983552;28;7107;-76
2023/06/19 06:45:19;;;;;;;;;;;;;;;25.74;49.34;100198.47;4977077;28;6780;-78
2023/06/19 06:47:45;;;;;;;;;;;;;;;25.91;49.39;100203.38;4983265;28;6844;-78
2023/06/19 06:50:11;;;;;;;;;;;;;;;26.04;48.77;100205.78;4985118;28;6776;-77
2023/06/19 06:52:37;;;;;;;;;;;;;;;26.15;48.89;100209.03;4968019;28;7157;-75
2023/06/19 06:55:04;;;;;;;;;;;;;;;26.28;48.63;100200.97;4976318;28;6811;-76
2023/06/19 06:57:30;;;;;;;;;;;;;;;26.36;48.13;100206.91;4996798;28;6872;-78
2023/06/19 06:59:55;;;;;;;;;;;;;;;26.40;47.86;100195.44;4960772;28;6982;-76
2023/06/19 07:02:21;;;;;;;;;;;;;;;26.50;48.03;100209.25;4970641;28;8960;-76
2023/06/19 07:04:47;;;;;;;;;;;;;;;26.64;48.22;100201.06;4974805;28;6918;-75
2023/06/19 07:07:12;;;;;;;;;;;;;;;26.82;47.99;100197.19;4978695;28;6985;-76
2023/06/19 07:09:38;;;;;;;;;;;;;;;27.00;47.54;100203.78;4980147;28;6788;-76
2023/06/19 07:12:04;;;;;;;;;;;;;;;27.14;47.24;100206.09;4978853;28;6779;-76
2023/06/19 07:14:30;;;;;;;;;;;;;;;27.31;47.10;100217.97;4962807;28;6975;-75
2023/06/19 07:16:56;;;;;;;;;;;;;;;27.46;46.86;100216.72;4978297;28;6853;-76
2023/06/19 07:19:22;;;;;;;;;;;;;;;27.60;46.41;100211.16;4962169;28;7265;-76
2023/06/19 07:21:50;;;;;;;;;;;;;;;27.70;46.17;100214.38;4977851;28;6796;-77
2023/06/19 07:24:16;;;;;;;;;;;;;;;27.78;46.17;100211.56;4995641;28;6792;-75
2023/06/19 07:26:41;;;;;;;;;;;;;;;27.86;45.60;100213.06;4981824;28;6768;-75
2023/06/19 07:29:07;;;;;;;;;;;;;;;27.99;45.19;100215.38;4985666;28;6784;-76
2023/06/19 07:31:33;;;;;;;;;;;;;;;28.09;44.96;100216.84;4978064;28;6850;-78
2023/06/19 07:33:58;;;;;;;;;;;;;;;28.15;44.69;100221.06;4979283;28;6777;-75
2023/06/19 07:36:24;;;;;;;;;;;;;;;28.22;44.66;100211.28;4977340;28;9358;-75
2023/06/19 07:38:52;;;;;;;;;;;;;;;28.38;45.11;100222.22;4985294;28;6772;-75
2023/06/19 07:41:17;;;;;;;;;;;;;;;28.63;44.75;100211.81;4983903;28;7138;-76
2023/06/19 07:43:43;;;;;;;;;;;;;;;28.93;44.06;100216.22;4975866;28;6800;-76
2023/06/19 07:46:10;;;;;;;;;;;;;;;29.15;43.17;100216.38;4953874;28;7283;-74
2023/06/19 07:48:35;;;;;;;;;;;;;;;29.36;43.20;100221.88;4982051;28;6792;-76
2023/06/19 07:51:01;;;;;;;;;;;;;;;29.51;42.45;100229.31;4976913;28;6872;-75
2023/06/19 07:53:26;;;;;;;;;;;;;;;29.61;42.91;100227.22;4978035;28;7171;-75
2023/06/19 07:55:52;;;;;;;;;;;;;;;29.70;42.12;100227.78;4973470;28;7314;-75
2023/06/19 07:58:18;;;;;;;;;;;;;;;29.74;42.00;100227.63;4975509;28;6772;-76
2023/06/19 08:00:44;;;;;;;;;;;;;;;29.84;42.16;100229.94;4975993;28;6851;-74
2023/06/19 08:03:09;;;;;;;;;;;;;;;29.91;41.19;100231.47;4976388;28;6851;-75
2023/06/19 08:05:35;;;;;;;;;;;;;;;29.97;41.55;100233.91;4977402;28;6931;-75
2023/06/19 08:08:01;;;;;;;;;;;;;;;30.07;41.58;100235.31;4991156;28;6986;-75
2023/06/19 08:10:27;;;;;;;;;;;;;;;30.18;40.54;100242.00;4971023;28;7172;-75
2023/06/19 08:12:52;;;;;;;;;;;;;;;30.27;40.54;100240.78;4977590;28;6852;-76
2023/06/19 08:15:18;;;;;;;;;;;;;;;30.37;40.35;100238.66;4965966;28;6970;-76
2023/06/19 08:17:44;;;;;;;;;;;;;;;30.44;39.92;100229.59;4964690;28;6957;-76
2023/06/19 08:20:10;;;;;;;;;;;;;;;30.57;39.75;100232.66;4963904;28;7179;-75
2023/06/19 08:22:36;;;;;;;;;;;;;;;30.74;39.28;100230.22;4981279;28;6848;-75
2023/06/19 08:25:03;;;;;;;;;;;;;;;30.90;39.62;100226.97;4981061;28;6775;-75
2023/06/19 08:27:29;;;;;;;;;;;;;;;31.03;39.26;100224.69;4978105;28;7861;-76
2023/06/19 08:29:55;;;;;;;;;;;;;;;31.11;38.91;100227.91;4976378;28;6782;-76
2023/06/19 08:32:20;;;;;;;;;;;;;;;31.24;38.51;100232.72;4998604;28;6999;-76
2023/06/19 08:34:46;;;;;;;;;;;;;;;31.35;38.43;100230.47;4977909;28;7322;-75
2023/06/19 08:37:12;;;;;;;;;;;;;;;31.51;38.68;100237.78;4983513;28;7832;-74
2023/06/19 08:39:40;;;;;;;;;;;;;;;31.73;37.80;100235.06;4979124;28;6923;-74
2023/06/19 08:42:07;;;;;;;;;;;;;;;31.98;37.74;100239.31;4985891;28;6796;-76
2023/06/19 08:44:35;;;;;;;;;;;;;;;32.23;37.03;100239.06;4961362;28;6978;-75
2023/06/19 08:47:05;;;;;;;;;;;;;;;32.59;36.98;100232.16;4959241;28;7201;-76
2023/06/19 08:49:35;;;;;;;;;;;;;;;33.08;36.40;100238.75;4976301;28;7118;-75
2023/06/19 08:52:06;;;;;;;;;;;;;;;33.54;35.64;100235.59;4974867;28;6804;-75
2023/06/19 08:54:32;;;;;;;;;;;;;;;33.90;34.78;100239.94;4980148;28;6784;-74
2023/06/19 08:57:04;;;;;;;;;;;;;;;34.06;34.10;100244.47;4980157;28;6788;-75
2023/06/19 08:59:31;;;;;;;;;;;;;;;34.11;33.60;100247.75;4975689;28;6955;-76
2023/06/19 09:01:57;;;;;;;;;;;;;;;34.06;32.86;100255.97;4968591;28;6796;-76
2023/06/19 09:04:26;;;;;;;;;;;;;;;33.95;32.78;100247.66;4975328;28;6772;-74
2023/06/19 09:07:03;;;;;;;;;;;;;;;33.83;32.76;100246.50;4962415;28;6889;-75
2023/06/19 09:09:30;;;;;;;;;;;;;;;33.78;32.74;100245.88;4977203;28;6791;-75
2023/06/19 09:12:03;;;;;;;;;;;;;;;34.01;33.32;100255.34;4972816;28;6954;-74
2023/06/19 09:14:45;;;;;;;;;;;;;;;34.44;32.45;100246.00;4980587;28;6978;-71
2023/06/19 09:17:20;;;;;;;;;;;;;;;34.83;31.92;100259.84;4957194;28;7059;-72
2023/06/19 09:19:51;;;;;;;;;;;;;;;35.07;30.94;100246.13;4973683;28;7134;-72
2023/06/19 09:22:20;;;;;;;;;;;;;;;35.33;30.56;100246.38;4981444;28;6891;-71
2023/06/19 09:24:46;;;;;;;;;;;;;;;35.57;30.40;100252.09;4981910;28;6998;-71
2023/06/19 09:27:19;;;;;;;;;;;;;;;35.85;29.78;100248.63;4978696;28;6954;-71
2023/06/19 09:29:47;;;;;;;;;;;;;;;36.23;30.00;100243.72;4981022;28;6859;-74
2023/06/19 09:32:22;;;;;;;;;;;;;;;36.70;28.75;100241.66;4975507;28;7015;-72
2023/06/19 09:34:51;;;;;;;;;;;;;;;37.13;28.08;100246.00;4996195;28;7216;-71
2023/06/19 09:37:26;;;;;;;;;;;;;;;37.51;27.61;100250.59;4975528;28;6816;-72
2023/06/19 09:39:59;;;;;;;;;;;;;;;37.82;27.20;100262.81;4976361;28;7280;-70
2023/06/19 09:42:33;;;;;;;;;;;;;;;38.02;27.08;100262.31;4990331;28;6807;-70
2023/06/19 09:45:01;;;;;;;;;;;;;;;38.25;26.85;100251.81;4972317;28;6824;-71
2023/06/19 09:47:35;;;;;;;;;;;;;;;38.47;26.20;100248.41;4973836;28;6827;-72
2023/06/19 09:50:03;;;;;;;;;;;;;;;38.67;25.85;100245.28;4994055;28;6991;-70
2023/06/19 09:52:29;;;;;;;;;;;;;;;38.81;25.93;100244.28;4992830;28;7010;-70
2023/06/19 09:54:57;;;;;;;;;;;;;;;38.90;25.12;100241.75;4975302;28;7236;-73
2023/06/19 09:57:24;;;;;;;;;;;;;;;38.85;25.16;100251.97;4977749;28;6932;-70
2023/06/19 09:59:56;;;;;;;;;;;;;;;38.83;25.14;100253.03;4977736;28;7114;-70
2023/06/19 10:02:25;;;;;;;;;;;;;;;38.92;25.10;100252.38;4977465;28;6859;-72
2023/06/19 10:04:55;;;;;;;;;;;;;;;38.89;24.94;100245.41;4976936;28;7030;-71
2023/06/19 10:07:32;;;;;;;;;;;;;;;38.78;25.15;100256.06;4973064;28;7198;-71
2023/06/19 10:10:07;;;;;;;;;;;;;;;38.87;25.03;100250.03;4973936;28;6800;-69
2023/06/19 10:12:44;;;;;;;;;;;;;;;39.03;24.85;100251.59;4979314;28;6938;-72
2023/06/19 10:15:19;;;;;;;;;;;;;;;39.29;24.50;100254.13;4979204;28;6792;-70
2023/06/19 10:17:52;;;;;;;;;;;;;;;39.37;24.25;100257.06;4981133;28;7236;-72
2023/06/19 10:20:39;;;;;;;;;;;;;;;39.58;23.69;100253.72;4978069;28;6800;-70
2023/06/19 10:23:07;;;;;;;;;;;;;;;39.78;23.23;100251.31;4960777;28;6860;-71
2023/06/19 10:25:39;;;;;;;;;;;;;;;39.75;22.86;100248.88;4976735;28;6776;-69
2023/06/19 10:28:23;;;;;;;;;;;;;;;39.49;22.64;100249.06;4977904;28;6960;-70
2023/06/19 10:30:56;;;;;;;;;;;;;;;39.07;22.98;100250.38;4979424;28;6990;-71
2023/06/19 10:33:28;;;;;;;;;;;;;;;38.75;23.09;100256.31;4976116;28;7095;-71
2023/06/19 10:35:54;;;;;;;;;;;;;;;38.79;23.32;100262.28;4972259;28;6913;-72
2023/06/19 10:38:20;;;;;;;;;;;;;;;38.92;23.32;100256.84;4994567;28;7229;-70
2023/06/19 10:40:46;;;;;;;;;;;;;;;38.97;23.39;100249.38;4986688;28;6836;-71
2023/06/19 10:43:19;;;;;;;;;;;;;;;39.08;23.25;100252.09;4985103;28;6800;-70
2023/06/19 10:45:45;;;;;;;;;;;;;;;39.32;23.23;100259.25;4985397;28;6812;-70
2023/06/19 10:48:10;;;;;;;;;;;;;;;39.54;22.70;100242.38;4964201;28;6922;-70
2023/06/19 10:50:42;;;;;;;;;;;;;;;39.65;22.69;100244.25;4985864;28;7228;-73
2023/06/19 10:53:07;;;;;;;;;;;;;;;39.93;22.40;100234.06;4965378;28;6990;-71
2023/06/19 10:55:33;;;;;;;;;;;;;;;40.20;22.42;100243.56;4963856;28;7023;-69
2023/06/19 10:57:59;;;;;;;;;;;;;;;40.40;22.20;100251.88;4978385;28;6983;-69
2023/06/19 11:00:30;;;;;;;;;;;;;;;40.55;21.91;100242.53;4971949;28;7144;-71
2023/06/19 11:02:57;;;;;;;;;;;;;;;40.68;21.85;100238.88;4976564;28;6799;-69
2023/06/19 11:05:26;;;;;;;;;;;;;;;40.76;21.70;100246.28;4971964;28;6796;-71
2023/06/19 11:07:58;;;;;;;;;;;;;;;40.97;21.67;100238.31;4976814;28;6784;-69
2023/06/19 11:10:29;;;;;;;;;;;;;;;41.32;21.21;100236.34;4999925;28;6868;-69
2023/06/19 11:12:57;;;;;;;;;;;;;;;41.68;21.13;100241.38;4976574;28;7880;-70
2023/06/19 11:15:35;;;;;;;;;;;;;;;41.94;20.70;100235.56;4962349;28;7002;-72
2023/06/19 11:18:02;;;;;;;;;;;;;;;41.92;20.43;100235.69;4978559;28;6792;-69
2023/06/19 11:20:29;;;;;;;;;;;;;;;41.80;20.77;100243.00;4983795;28;6812;-72
2023/06/19 11:23:00;;;;;;;;;;;;;;;41.54;20.39;100229.09;4983529;28;6788;-69
2023/06/19 11:25:37;;;;;;;;;;;;;;;40.99;20.45;100219.34;4961019;28;7060;-69
2023/06/19 11:28:05;;;;;;;;;;;;;;;40.73;21.43;100228.59;4980450;28;7244;-70
2023/06/19 11:30:33;;;;;;;;;;;;;;;40.85;20.99;100221.38;4958141;28;7018;-70
2023/06/19 11:33:00;;;;;;;;;;;;;;;40.89;20.81;100227.34;4999531;28;6986;-72
2023/06/19 11:35:36;;;;;;;;;;;;;;;40.78;20.25;100230.91;4981150;28;6780;-73
2023/06/19 11:38:01;;;;;;;;;;;;;;;40.69;20.74;100229.84;4973457;28;7117;-70
2023/06/19 11:40:28;;;;;;;;;;;;;;;40.77;20.78;100229.22;4980148;28;6795;-69
2023/06/19 11:42:54;;;;;;;;;;;;;;;40.72;20.71;100220.69;4980364;28;6816;-70
2023/06/19 11:45:21;;;;;;;;;;;;;;;40.52;20.81;100220.50;4981960;28;7350;-72
2023/06/19 11:47:49;;;;;;;;;;;;;;;40.34;20.64;100215.66;4973894;28;6947;-72
2023/06/19 11:50:15;;;;;;;;;;;;;;;40.17;21.04;100221.50;4957366;28;7303;-72
2023/06/19 11:52:46;;;;;;;;;;;;;;;39.87;21.07;100217.59;4960593;28;7097;-69
2023/06/19 11:55:15;;;;;;;;;;;;;;;39.43;21.43;100219.13;4973156;28;7026;-72
2023/06/19 11:57:41;;;;;;;;;;;;;;;39.05;22.06;100224.69;4978477;28;7001;-69
2023/06/19 12:00:17;;;;;;;;;;;;;;;38.77;22.31;100227.59;4973204;28;6768;-70
2023/06/19 12:02:45;;;;;;;;;;;;;;;38.52;22.51;100232.06;4976790;28;11750;-71
2023/06/19 12:05:10;;;;;;;;;;;;;;;38.20;22.58;100232.53;4963702;28;7276;-71
2023/06/19 12:07:36;;;;;;;;;;;;;;;37.86;22.53;100230.41;4969874;28;7053;-69
2023/06/19 12:10:04;;;;;;;;;;;;;;;37.57;22.76;100238.66;4998221;28;7254;-70
2023/06/19 12:12:30;;;;;;;;;;;;;;;37.31;23.25;100232.38;4984743;28;6898;-71
2023/06/19 12:14:56;;;;;;;;;;;;;;;37.01;23.67;100236.97;4962168;28;6978;-70
2023/06/19 12:17:22;;;;;;;;;;;;;;;36.93;24.16;100242.81;4975567;28;6784;-70
2023/06/19 12:19:48;;;;;;;;;;;;;;;37.09;24.45;100234.69;4974938;28;7642;-71
2023/06/19 12:22:14;;;;;;;;;;;;;;;37.55;24.07;100234.34;4976073;28;6971;-71
2023/06/19 12:24:39;;;;;;;;;;;;;;;38.13;23.41;100244.63;4970766;28;7238;-71
2023/06/19 12:27:05;;;;;;;;;;;;;;;38.67;22.86;100231.91;4974911;28;6776;-72
2023/06/19 12:29:31;;;;;;;;;;;;;;;39.12;22.63;100226.78;4982667;28;7024;-71
2023/06/19 12:32:02;;;;;;;;;;;;;;;39.55;22.17;100228.03;4964502;28;7118;-71
2023/06/19 12:34:28;;;;;;;;;;;;;;;39.77;21.63;100233.53;4979829;28;6868;-72
2023/06/19 12:36:54;;;;;;;;;;;;;;;39.97;21.63;100226.63;4980879;28;7051;-71
2023/06/19 12:39:21;;;;;;;;;;;;;;;40.29;21.80;100222.34;4983904;28;6787;-71
2023/06/19 12:41:46;;;;;;;;;;;;;;;40.68;21.36;100217.41;4961387;28;6976;-72
2023/06/19 12:44:12;;;;;;;;;;;;;;;41.07;20.87;100217.75;4971508;28;7412;-71
2023/06/19 12:46:38;;;;;;;;;;;;;;;41.31;20.91;100210.44;4961220;28;7230;-71
2023/06/19 12:49:03;;;;;;;;;;;;;;;41.51;20.56;100211.41;4974412;28;7659;-72